Time;durP1;ratioP1;P1;durP2;ratioP2;P2;SDS_P1;SDS_P2;PMS_P1;PMS_P2;Temp;Humidity;BMP_temperature;BMP_pressure;BME280_temperature;BME280_humidity;BME280_pressure;Samples;Min_cycle;Max_cycle;Signal;HPM_P1;HPM_P2
2023/07/22 00:04:38;;;;;;;14.20;8.35;;;;;;;10.78;100.00;101272.44;10449729;28;20381;-79
2023/07/22 00:09:41;;;;;;;13.88;7.82;;;;;;;10.86;100.00;101258.03;10453011;28;20134;-79
2023/07/22 00:14:41;;;;;;;22.98;8.88;;;;;;;10.98;100.00;101269.16;10415701;28;20033;-79
2023/07/22 00:19:42;;;;;;;15.75;9.05;;;;;;;11.11;100.00;101254.09;10431150;28;20098;-79
2023/07/22 00:24:43;;;;;;;12.70;9.55;;;;;;;11.22;100.00;101265.09;10457913;28;20029;-79
2023/07/22 00:29:43;;;;;;;12.48;7.30;;;;;;;11.26;100.00;101261.81;10460042;28;20049;-79
2023/07/22 00:34:44;;;;;;;15.00;7.03;;;;;;;11.34;100.00;101265.72;10458490;28;20052;-79
2023/07/22 00:39:44;;;;;;;13.95;7.20;;;;;;;11.38;100.00;101270.31;10466370;28;20044;-79
2023/07/22 00:44:45;;;;;;;12.93;6.60;;;;;;;11.36;100.00;101264.09;10442519;28;20044;-79
2023/07/22 00:49:47;;;;;;;12.18;8.50;;;;;;;11.38;100.00;101253.69;10448942;28;20039;-79
2023/07/22 00:54:47;;;;;;;13.60;7.15;;;;;;;11.40;100.00;101255.56;10448530;28;20044;-79
2023/07/22 00:59:48;;;;;;;14.55;8.32;;;;;;;11.42;100.00;101250.41;10437396;28;20531;-79
2023/07/22 01:04:49;;;;;;;10.85;7.65;;;;;;;11.45;100.00;101246.22;10455650;28;20040;-79
2023/07/22 01:09:50;;;;;;;13.35;6.55;;;;;;;11.44;100.00;101239.16;10469864;28;20033;-79
2023/07/22 01:14:50;;;;;;;11.85;7.05;;;;;;;11.41;100.00;101236.38;10457693;28;20124;-79
2023/07/22 01:19:51;;;;;;;13.40;7.75;;;;;;;11.38;100.00;101231.00;10453820;28;20120;-79
2023/07/22 01:24:51;;;;;;;13.07;7.57;;;;;;;11.36;100.00;101232.63;10459573;28;20097;-80
2023/07/22 01:29:52;;;;;;;19.27;7.65;;;;;;;11.34;100.00;101236.03;10411016;28;20110;-81
2023/07/22 01:34:52;;;;;;;13.00;7.85;;;;;;;11.26;100.00;101230.38;10458864;28;20060;-80
2023/07/22 01:39:56;;;;;;;14.82;7.82;;;;;;;11.15;100.00;101228.13;10439007;28;20056;-80
2023/07/22 01:44:57;;;;;;;12.95;7.82;;;;;;;11.07;100.00;101229.44;10465678;28;20044;-80
2023/07/22 01:49:57;;;;;;;12.25;7.32;;;;;;;11.03;100.00;101217.00;10452429;28;20094;-80
2023/07/22 01:54:58;;;;;;;14.10;7.43;;;;;;;10.98;100.00;101216.78;10458617;28;20040;-79
2023/07/22 01:59:59;;;;;;;11.13;6.20;;;;;;;10.85;100.00;101202.13;10466580;28;20376;-79
2023/07/22 02:04:59;;;;;;;11.73;6.28;;;;;;;10.78;100.00;101222.72;10461496;28;20048;-79
2023/07/22 02:10:00;;;;;;;10.73;5.93;;;;;;;10.94;100.00;101209.59;10467268;28;20128;-79
2023/07/22 02:15:00;;;;;;;10.07;6.00;;;;;;;11.06;100.00;101213.66;10463271;28;20518;-79
2023/07/22 02:20:01;;;;;;;13.10;5.85;;;;;;;11.16;100.00;101201.09;10445626;28;20562;-79
2023/07/22 02:25:01;;;;;;;8.55;6.50;;;;;;;11.23;100.00;101210.19;10473490;28;20186;-79
2023/07/22 02:30:04;;;;;;;13.77;8.13;;;;;;;11.28;100.00;101208.69;10495735;28;20037;-79
2023/07/22 02:35:06;;;;;;;19.90;8.13;;;;;;;11.38;100.00;101194.31;10515493;28;20040;-79
2023/07/22 02:40:13;;;;;;;15.63;6.47;;;;;;;11.44;100.00;101186.75;10506821;28;20082;-79
2023/07/22 02:45:14;;;;;;;11.43;6.32;;;;;;;11.44;100.00;101199.84;10507830;28;20100;-79
2023/07/22 02:50:14;;;;;;;13.57;7.05;;;;;;;11.41;100.00;101191.84;10495570;28;20556;-79
2023/07/22 02:55:18;;;;;;;10.30;5.57;;;;;;;11.41;100.00;101197.06;10491661;28;20143;-79
2023/07/22 03:00:23;;;;;;;11.52;5.93;;;;;;;11.38;100.00;101209.16;10496707;28;20033;-79
2023/07/22 03:05:25;;;;;;;12.20;6.43;;;;;;;11.38;100.00;101209.16;10504379;28;20041;-79
2023/07/22 03:10:26;;;;;;;;;;;;;;;11.33;100.00;101213.25;10462565;28;20060;-79
2023/07/22 03:15:28;;;;;;;18.75;7.18;;;;;;;11.31;100.00;101206.22;10443760;28;20027;-79
2023/07/22 03:20:28;;;;;;;12.87;6.30;;;;;;;11.34;100.00;101215.94;10445266;28;20033;-79
2023/07/22 03:25:29;;;;;;;10.02;6.55;;;;;;;11.35;100.00;101212.50;10446079;28;20362;-79
2023/07/22 03:30:29;;;;;;;10.27;6.20;;;;;;;11.38;100.00;101204.78;10445822;28;20091;-80
2023/07/22 03:35:30;;;;;;;10.02;6.30;;;;;;;11.39;100.00;101208.31;10443357;28;20108;-79
2023/07/22 03:40:31;;;;;;;22.00;7.07;;;;;;;11.38;100.00;101211.78;10443574;28;20380;-79
2023/07/22 03:45:31;;;;;;;12.45;6.25;;;;;;;11.32;100.00;101209.72;10444047;28;20466;-78
2023/07/22 03:50:32;;;;;;;13.85;7.22;;;;;;;11.27;100.00;101219.06;10443111;28;20566;-79
2023/07/22 03:55:32;;;;;;;12.18;6.25;;;;;;;11.25;100.00;101219.00;10480473;28;20037;-80
2023/07/22 04:00:33;;;;;;;9.18;5.32;;;;;;;11.31;100.00;101219.31;10467362;28;20455;-79
2023/07/22 04:05:33;;;;;;;15.73;7.78;;;;;;;11.42;100.00;101221.59;10482809;28;20044;-79
2023/07/22 04:10:34;;;;;;;13.27;8.02;;;;;;;11.53;100.00;101209.00;10470828;28;20033;-79
2023/07/22 04:15:34;;;;;;;12.68;7.38;;;;;;;11.65;100.00;101209.59;10483643;28;20554;-79
2023/07/22 04:20:35;;;;;;;14.90;8.63;;;;;;;11.79;100.00;101207.66;10473119;28;20116;-78
2023/07/22 04:25:42;;;;;;;12.82;6.82;;;;;;;11.79;100.00;101206.75;10477777;28;20495;-81
2023/07/22 04:30:43;;;;;;;14.13;7.45;;;;;;;11.81;100.00;101211.25;10498284;28;20405;-79
2023/07/22 04:35:43;;;;;;;12.32;7.85;;;;;;;11.92;100.00;101208.25;10484000;28;20036;-80
2023/07/22 04:40:44;;;;;;;11.60;7.18;;;;;;;11.95;100.00;101204.03;10482448;28;20452;-79
2023/07/22 04:45:47;;;;;;;33.58;20.38;;;;;;;11.98;100.00;101205.91;10482876;28;20043;-80
2023/07/22 04:50:48;;;;;;;29.55;17.50;;;;;;;12.02;100.00;101208.78;10482718;28;20036;-80
2023/07/22 04:55:48;;;;;;;17.58;9.48;;;;;;;11.94;100.00;101207.47;10467123;28;20115;-80
2023/07/22 05:00:49;;;;;;;20.77;9.70;;;;;;;11.99;100.00;101205.97;10478360;28;20039;-78
2023/07/22 05:05:50;;;;;;;17.42;10.55;;;;;;;12.24;100.00;101201.03;10467287;28;20041;-78
2023/07/22 05:10:51;;;;;;;12.27;7.55;;;;;;;12.52;100.00;101200.53;10476252;28;20127;-78
2023/07/22 05:15:51;;;;;;;13.75;8.65;;;;;;;12.87;100.00;101181.94;10460283;28;20052;-76
2023/07/22 05:20:52;;;;;;;16.52;9.48;;;;;;;13.26;100.00;101191.44;10473850;28;20075;-77
2023/07/22 05:25:55;;;;;;;15.27;8.07;;;;;;;13.47;100.00;101197.59;10477580;28;20050;-77
2023/07/22 05:30:56;;;;;;;14.25;8.02;;;;;;;13.88;100.00;101193.94;10450063;28;20048;-80
2023/07/22 05:35:56;;;;;;;17.67;8.52;;;;;;;14.39;100.00;101188.88;10422146;28;20098;-78
2023/07/22 05:40:57;;;;;;;17.35;8.60;;;;;;;14.74;100.00;101190.16;10439615;28;20102;-81
2023/07/22 05:45:57;;;;;;;13.48;8.38;;;;;;;14.45;100.00;101200.47;10478188;28;20610;-81
2023/07/22 05:50:58;;;;;;;16.35;10.02;;;;;;;14.29;100.00;101197.28;10455442;28;20047;-79
2023/07/22 05:55:59;;;;;;;20.38;13.63;;;;;;;14.59;100.00;101209.78;10476915;28;20036;-79
2023/07/22 06:00:59;;;;;;;20.48;12.82;;;;;;;14.54;100.00;101200.81;10480688;28;20496;-79
2023/07/22 06:05:59;;;;;;;14.07;9.73;;;;;;;14.65;100.00;101204.75;10461873;28;20043;-79
2023/07/22 06:11:00;;;;;;;29.80;17.15;;;;;;;14.72;100.00;101212.91;10490366;28;20489;-79
2023/07/22 06:16:01;;;;;;;19.92;12.93;;;;;;;14.76;100.00;101212.19;10480428;28;20036;-81
2023/07/22 06:21:01;;;;;;;15.52;11.07;;;;;;;14.67;100.00;101215.34;10463814;28;20052;-80
2023/07/22 06:26:02;;;;;;;16.17;9.63;;;;;;;14.61;100.00;101223.03;10483604;28;20044;-80
2023/07/22 06:31:02;;;;;;;12.45;7.45;;;;;;;14.74;100.00;101221.75;10483066;28;20489;-80
2023/07/22 06:36:03;;;;;;;19.02;10.90;;;;;;;14.89;100.00;101216.16;10489590;28;20190;-80
2023/07/22 06:41:04;;;;;;;21.13;11.75;;;;;;;14.98;100.00;101213.84;10441165;28;20037;-80
2023/07/22 06:46:04;;;;;;;17.65;10.25;;;;;;;15.52;100.00;101201.59;10460077;28;20043;-80
2023/07/22 06:51:05;;;;;;;14.32;9.80;;;;;;;16.18;100.00;101200.16;10484073;28;20116;-80
2023/07/22 06:56:05;;;;;;;17.25;9.65;;;;;;;16.42;100.00;101189.41;10487737;28;20412;-80
2023/07/22 07:01:06;;;;;;;16.58;10.00;;;;;;;16.40;100.00;101193.75;10486538;28;20037;-81
2023/07/22 07:06:06;;;;;;;19.05;10.23;;;;;;;16.83;100.00;101188.78;10487970;28;20036;-80
2023/07/22 07:11:07;;;;;;;17.75;10.50;;;;;;;16.98;100.00;101182.16;10480742;28;20047;-80
2023/07/22 07:16:24;;;;;;;20.15;10.98;;;;;;;17.14;100.00;101192.25;10485606;28;20078;-80
2023/07/22 07:21:25;;;;;;;17.98;10.98;;;;;;;17.50;100.00;101186.97;10415864;28;20513;-81
2023/07/22 07:26:25;;;;;;;18.33;9.73;;;;;;;18.63;100.00;101185.03;10406106;28;20045;-80
2023/07/22 07:31:27;;;;;;;16.35;8.45;;;;;;;19.18;100.00;101175.44;10445596;28;20029;-81
2023/07/22 07:36:28;;;;;;;15.65;7.88;;;;;;;19.39;100.00;101180.22;10476285;28;20108;-80
2023/07/22 07:41:28;;;;;;;16.77;9.30;;;;;;;19.52;100.00;101186.59;10442943;28;20556;-81
2023/07/22 07:46:29;;;;;;;13.65;9.02;;;;;;;19.74;100.00;101185.19;10428545;28;20040;-78
2023/07/22 07:51:30;;;;;;;13.63;8.07;;;;;;;20.17;100.00;101179.59;10414552;28;20099;-82
2023/07/22 07:56:31;;;;;;;20.05;7.35;;;;;;;21.35;100.00;101177.31;10403959;28;20068;-81
2023/07/22 08:01:31;;;;;;;14.50;9.13;;;;;;;22.18;100.00;101184.06;10444351;28;20112;-83
2023/07/22 08:06:33;;;;;;;16.20;9.50;;;;;;;21.91;100.00;101177.72;10443295;28;20119;-83
2023/07/22 08:11:33;;;;;;;17.13;10.32;;;;;;;21.67;100.00;101184.69;10441300;28;20037;-81
2023/07/22 08:16:34;;;;;;;11.73;7.43;;;;;;;22.28;100.00;101181.44;10437818;28;20057;-82
2023/07/22 08:21:34;;;;;;;9.80;7.23;;;;;;;21.75;100.00;101182.94;10432451;28;20048;-82
2023/07/22 08:26:35;;;;;;;11.03;7.73;;;;;;;21.64;100.00;101187.31;10442436;28;20064;-81
2023/07/22 08:31:36;;;;;;;11.33;6.07;;;;;;;21.08;100.00;101193.03;10440404;28;20240;-81
2023/07/22 08:36:36;;;;;;;10.37;6.83;;;;;;;20.40;100.00;101194.94;10481438;28;20046;-82
2023/07/22 08:41:37;;;;;;;11.18;5.75;;;;;;;20.13;100.00;101183.09;10480305;28;20055;-81
2023/07/22 08:46:37;;;;;;;11.33;5.53;;;;;;;20.27;100.00;101188.59;10481830;28;20033;-82
2023/07/22 08:51:38;;;;;;;14.00;7.10;;;;;;;19.83;100.00;101184.41;10481312;28;20033;-82
2023/07/22 08:56:40;;;;;;;10.07;5.63;;;;;;;19.39;100.00;101182.88;10481424;28;20043;-80
2023/07/22 09:01:40;;;;;;;9.60;5.60;;;;;;;19.41;100.00;101183.78;10480537;28;20044;-81
2023/07/22 09:06:41;;;;;;;15.88;6.00;;;;;;;19.91;100.00;101172.16;10479344;28;20035;-81
2023/07/22 09:11:42;;;;;;;18.17;7.75;;;;;;;20.21;100.00;101177.88;10481100;28;20047;-78
2023/07/22 09:16:42;;;;;;;11.75;4.93;;;;;;;20.97;100.00;101181.41;10464917;28;20123;-79
2023/07/22 09:21:44;;;;;;;9.43;5.07;;;;;;;22.78;100.00;101178.94;10478736;28;20045;-82
2023/07/22 09:26:44;;;;;;;10.25;3.17;;;;;;;23.79;99.37;101184.31;10445901;28;20053;-81
2023/07/22 09:31:52;;;;;;;8.87;4.53;;;;;;;24.77;91.33;101179.50;10465331;28;20052;-82
2023/07/22 09:36:57;;;;;;;9.93;3.67;;;;;;;26.73;82.22;101169.44;10482296;28;20366;-82
2023/07/22 09:41:58;;;;;;;8.02;5.43;;;;;;;25.90;77.08;101179.44;10477097;28;20105;-81
2023/07/22 09:46:59;;;;;;;7.70;3.40;;;;;;;25.22;85.97;101186.31;10453885;28;20124;-83
2023/07/22 09:52:00;;;;;;;7.03;5.10;;;;;;;25.62;75.84;101177.94;10487883;28;20037;-81
2023/07/22 09:57:00;;;;;;;9.10;3.77;;;;;;;26.77;71.92;101159.53;10469247;28;20036;-78
2023/07/22 10:02:02;;;;;;;10.67;3.53;;;;;;;25.27;73.11;101172.88;10437070;28;20076;-80
2023/07/22 10:07:04;;;;;;;5.72;3.88;;;;;;;22.80;91.22;101170.97;10488366;28;20043;-82
2023/07/22 10:12:05;;;;;;;8.38;3.47;;;;;;;24.60;90.74;101168.00;10454928;28;20555;-79
2023/07/22 10:17:06;;;;;;;6.75;4.32;;;;;;;26.21;73.16;101176.41;10488396;28;20074;-79
2023/07/22 10:22:07;;;;;;;5.73;2.80;;;;;;;25.54;71.52;101176.22;10487966;28;20036;-80
2023/07/22 10:27:08;;;;;;;;;;;;;;;25.16;79.16;101172.97;10475490;27;20094;-80
2023/07/22 10:32:08;;;;;;;4.97;2.87;;;;;;;25.51;71.11;101164.66;10482510;28;20437;-81
2023/07/22 10:37:10;;;;;;;5.53;3.57;;;;;;;26.07;68.09;101163.16;10475874;28;20098;-81
2023/07/22 10:42:23;;;;;;;4.38;2.28;;;;;;;25.75;66.67;101157.25;10516559;28;20468;-80
2023/07/22 10:47:33;;;;;;;4.57;2.05;;;;;;;25.09;67.92;101173.94;10487499;28;20420;-81
2023/07/22 10:52:42;;;;;;;4.75;3.05;;;;;;;25.08;69.25;101154.28;10483477;28;20037;-81
2023/07/22 10:57:50;;;;;;;5.18;2.30;;;;;;;26.82;65.49;101158.59;10470441;28;20094;-80
2023/07/22 11:03:10;;;;;;;4.60;2.85;;;;;;;26.08;64.28;101165.81;10467996;28;20045;-80
2023/07/22 11:08:10;;;;;;;8.23;3.17;;;;;;;25.14;64.88;101148.00;10452034;28;20056;-81
2023/07/22 11:13:11;;;;;;;4.67;2.73;;;;;;;25.90;64.93;101144.59;10486469;28;20032;-81
2023/07/22 11:18:11;;;;;;;9.20;2.53;;;;;;;27.31;62.85;101142.59;10467972;28;20421;-80
2023/07/22 11:23:12;;;;;;;5.10;2.17;;;;;;;28.51;56.23;101124.97;10487885;28;20033;-82
2023/07/22 11:28:14;;;;;;;5.87;1.80;;;;;;;27.65;52.12;101117.78;10464830;27;20037;-80
2023/07/22 11:33:14;;;;;;;8.00;2.17;;;;;;;27.99;51.61;101117.09;10486880;28;20480;-80
2023/07/22 11:38:15;;;;;;;3.83;2.43;;;;;;;27.18;58.23;101125.78;10476291;28;20032;-80
2023/07/22 11:43:15;;;;;;;6.17;2.23;;;;;;;27.72;51.25;101112.28;10485000;28;20273;-80
2023/07/22 11:48:16;;;;;;;6.57;1.77;;;;;;;26.33;56.22;101100.28;10470600;28;20075;-79
2023/07/22 11:53:16;;;;;;;4.53;1.57;;;;;;;26.33;58.97;101094.91;10485931;28;20033;-82
2023/07/22 11:58:25;;;;;;;2.47;1.10;;;;;;;24.90;58.60;101097.31;10486701;28;20155;-80
2023/07/22 12:03:25;;;;;;;3.22;1.95;;;;;;;24.37;56.71;101078.06;10468603;28;20044;-80
2023/07/22 12:08:26;;;;;;;4.77;2.77;;;;;;;24.48;63.09;101089.59;10482024;28;20417;-80
2023/07/22 12:13:26;;;;;;;3.60;1.83;;;;;;;25.12;57.71;101085.53;10482697;28;20071;-84
2023/07/22 12:18:27;;;;;;;3.43;1.93;;;;;;;24.10;67.70;101077.34;10468662;28;20039;-84
2023/07/22 12:23:27;;;;;;;3.13;1.93;;;;;;;25.03;58.71;101071.34;10472978;28;20043;-83
2023/07/22 12:28:28;;;;;;;4.20;1.60;;;;;;;25.41;56.14;101069.16;10437195;28;20040;-84
2023/07/22 12:33:28;;;;;;;5.67;2.30;;;;;;;26.25;58.36;101070.84;10434288;28;20136;-84
2023/07/22 12:38:29;;;;;;;7.33;1.90;;;;;;;26.75;54.37;101062.03;10442010;28;20063;-84
2023/07/22 12:43:30;;;;;;;3.67;2.10;;;;;;;26.44;54.65;101079.53;10437272;28;20089;-84
2023/07/22 12:48:31;;;;;;;5.83;2.17;;;;;;;25.33;54.41;101082.66;10443147;28;20090;-84
2023/07/22 12:53:31;;;;;;;4.80;1.80;;;;;;;24.32;54.89;101064.72;10439476;28;20330;-84
2023/07/22 12:58:32;;;;;;;3.30;2.47;;;;;;;24.82;56.46;101050.13;10440770;28;20123;-87
2023/07/22 13:03:32;;;;;;;6.00;3.33;;;;;;;25.36;59.45;101049.56;10439855;28;20179;-85
2023/07/22 13:08:33;;;;;;;2.67;1.60;;;;;;;25.92;53.47;101054.28;10441343;28;20047;-85
2023/07/22 13:13:33;;;;;;;6.20;2.33;;;;;;;25.66;51.44;101047.47;10438604;28;20033;-81
2023/07/22 13:18:34;;;;;;;4.83;2.20;;;;;;;26.33;52.77;101035.88;10407982;28;20055;-82
2023/07/22 13:23:35;;;;;;;4.17;3.03;;;;;;;27.02;53.57;101043.72;10439031;28;20037;-82
2023/07/22 13:28:35;;;;;;;3.00;2.28;;;;;;;27.56;47.51;101037.34;10429740;28;20497;-83
2023/07/22 13:33:36;;;;;;;4.20;1.70;;;;;;;26.36;52.02;101025.97;10443165;28;20129;-81
2023/07/22 13:38:36;;;;;;;5.23;3.10;;;;;;;26.66;50.15;101018.34;10425220;28;20048;-82
2023/07/22 13:43:37;;;;;;;8.30;1.93;;;;;;;26.74;49.99;101020.00;10440885;28;20039;-80
2023/07/22 13:48:37;;;;;;;3.57;1.67;;;;;;;26.43;50.41;101028.56;10446896;28;20453;-80
2023/07/22 13:53:38;;;;;;;6.60;2.43;;;;;;;25.10;50.75;101018.59;10448037;28;20501;-81
2023/07/22 13:58:38;;;;;;;6.50;2.23;;;;;;;23.46;55.45;101008.09;10446772;28;20435;-80
2023/07/22 14:03:39;;;;;;;4.20;1.80;;;;;;;23.70;58.26;101018.69;10437061;28;20166;-81
2023/07/22 14:08:39;;;;;;;3.90;1.80;;;;;;;25.59;53.62;101008.25;10434932;28;20489;-80
2023/07/22 14:13:40;;;;;;;3.47;1.97;;;;;;;26.67;51.30;101012.06;10431296;28;20055;-81
2023/07/22 14:18:40;;;;;;;1.87;1.07;;;;;;;24.83;51.66;101012.63;10423805;28;20041;-80
2023/07/22 14:23:41;;;;;;;3.30;1.77;;;;;;;24.57;55.32;101005.69;10442102;28;20072;-79
2023/07/22 14:28:42;;;;;;;4.07;2.10;;;;;;;24.08;58.01;100987.31;10446682;28;20060;-82
2023/07/22 14:33:43;;;;;;;3.40;1.77;;;;;;;23.54;59.43;100991.16;10446435;28;20260;-80
2023/07/22 14:38:43;;;;;;;3.87;1.47;;;;;;;23.53;58.19;101003.63;10516647;28;20416;-81
2023/07/22 14:43:44;;;;;;;4.37;1.93;;;;;;;22.74;61.33;101003.75;10488581;28;20032;-79
2023/07/22 14:48:45;;;;;;;4.13;1.80;;;;;;;22.46;62.79;101001.09;10487059;28;20043;-80
2023/07/22 14:53:46;;;;;;;4.63;2.23;;;;;;;22.54;59.32;100994.00;10482606;28;20072;-80
2023/07/22 14:58:47;;;;;;;3.40;1.80;;;;;;;22.87;60.53;100997.53;10480109;28;20121;-80
2023/07/22 15:03:48;;;;;;;2.97;1.67;;;;;;;23.22;58.28;100992.13;10467306;28;20075;-79
2023/07/22 15:08:51;;;;;;;6.57;2.90;;;;;;;22.36;59.73;100992.19;10483993;28;20090;-78
2023/07/22 15:13:52;;;;;;;4.78;2.15;;;;;;;22.56;60.31;100986.00;10478775;28;20086;-82
2023/07/22 15:18:52;;;;;;;6.40;3.13;;;;;;;22.46;62.82;100981.56;10452315;28;20102;-78
2023/07/22 15:23:54;;;;;;;4.23;2.00;;;;;;;22.02;61.87;100981.47;10501497;28;20563;-79
2023/07/22 15:28:54;;;;;;;7.85;3.25;;;;;;;22.26;65.43;100987.72;10478389;28;20041;-79
2023/07/22 15:33:55;;;;;;;8.47;4.90;;;;;;;22.02;62.23;100984.13;10461881;28;20064;-83
2023/07/22 15:38:55;;;;;;;13.50;8.47;;;;;;;21.97;65.44;100991.22;10505235;28;20163;-79
2023/07/22 15:43:56;;;;;;;5.80;3.10;;;;;;;22.10;60.83;100976.16;10475926;28;20234;-80
2023/07/22 15:48:56;;;;;;;7.17;3.20;;;;;;;21.86;61.36;100977.88;10495843;28;20040;-78
2023/07/22 15:53:57;;;;;;;6.93;2.50;;;;;;;21.70;61.59;100972.50;10477473;28;20067;-81
2023/07/22 15:58:58;;;;;;;5.20;2.20;;;;;;;21.73;67.06;100971.63;10469075;28;20056;-80
2023/07/22 16:03:58;;;;;;;5.47;2.00;;;;;;;21.71;60.10;100968.94;10458452;28;20516;-82
2023/07/22 16:08:59;;;;;;;6.53;2.20;;;;;;;21.76;60.95;100968.06;10473437;28;20048;-83
2023/07/22 16:13:59;;;;;;;4.60;2.03;;;;;;;21.49;60.87;100970.63;10481579;28;20464;-83
2023/07/22 16:19:00;;;;;;;6.97;2.00;;;;;;;21.20;59.54;100982.03;10503702;28;20531;-82
2023/07/22 16:24:00;;;;;;;5.77;2.67;;;;;;;21.12;59.62;100979.31;10499836;28;20043;-83
2023/07/22 16:29:02;;;;;;;3.03;1.70;;;;;;;20.75;61.03;100979.03;10499230;28;20153;-82
2023/07/22 16:34:03;;;;;;;6.15;2.17;;;;;;;20.51;62.19;100985.06;10465194;28;20048;-83
2023/07/22 16:39:03;;;;;;;9.68;5.53;;;;;;;20.33;64.65;100972.47;10435354;28;20445;-82
2023/07/22 16:44:04;;;;;;;12.50;10.00;;;;;;;20.39;65.34;100970.78;10394785;28;20044;-83
2023/07/22 16:49:06;;;;;;;17.88;13.73;;;;;;;20.45;66.98;100980.56;10405276;28;20052;-83
2023/07/22 16:54:07;;;;;;;6.18;3.00;;;;;;;20.35;68.78;100976.03;10423991;28;20526;-83
2023/07/22 16:59:08;;;;;;;7.35;2.85;;;;;;;20.20;67.38;100979.47;10439252;28;20163;-82
2023/07/22 17:04:10;;;;;;;5.90;2.25;;;;;;;20.02;69.90;100977.50;10437384;28;20058;-83
2023/07/22 17:09:14;;;;;;;4.28;2.53;;;;;;;19.97;68.54;100969.50;10435657;28;20040;-83
2023/07/22 17:14:14;;;;;;;3.45;1.92;;;;;;;19.89;71.45;100969.41;10437349;28;20132;-83
2023/07/22 17:19:22;;;;;;;15.20;2.60;;;;;;;19.95;72.91;100957.97;10417930;28;20359;-83
2023/07/22 17:24:22;;;;;;;4.50;2.17;;;;;;;19.93;74.18;100962.38;10433119;28;20049;-81
2023/07/22 17:29:23;;;;;;;5.47;1.92;;;;;;;19.84;79.22;100962.25;10418728;28;20037;-82
2023/07/22 17:34:24;;;;;;;4.35;1.67;;;;;;;19.88;82.71;100948.13;10464201;28;20124;-82
2023/07/22 17:39:24;;;;;;;4.00;1.42;;;;;;;19.71;79.29;100947.91;10435332;28;20116;-82
2023/07/22 17:44:25;;;;;;;7.35;2.65;;;;;;;19.61;82.10;100944.28;10413410;28;20039;-82
2023/07/22 17:49:26;;;;;;;3.53;1.95;;;;;;;19.58;82.48;100930.97;10410525;28;20033;-82
2023/07/22 17:54:27;;;;;;;3.55;1.92;;;;;;;19.54;87.87;100943.31;10430997;28;20493;-81
2023/07/22 17:59:27;;;;;;;4.60;2.08;;;;;;;19.40;89.87;100942.25;10390488;28;20033;-94
2023/07/22 18:04:28;;;;;;;4.15;1.80;;;;;;;19.18;94.40;100937.56;10388787;28;20559;-87
2023/07/22 18:09:29;;;;;;;3.88;1.88;;;;;;;19.08;94.69;100940.97;10416490;28;20045;-81
2023/07/22 18:14:30;;;;;;;8.77;4.05;;;;;;;18.88;100.00;100932.69;10410401;28;20043;-83
2023/07/22 18:19:30;;;;;;;5.30;1.98;;;;;;;18.70;100.00;100920.06;10419238;28;20562;-84
2023/07/22 18:24:31;;;;;;;6.65;2.25;;;;;;;18.57;100.00;100929.56;10458493;28;20072;-84
2023/07/22 18:29:32;;;;;;;5.32;2.47;;;;;;;18.41;100.00;100924.03;10487890;28;20064;-84
2023/07/22 18:34:32;;;;;;;4.45;2.28;;;;;;;18.30;100.00;100925.63;10466240;28;20484;-83
2023/07/22 18:39:33;;;;;;;4.70;2.22;;;;;;;18.26;100.00;100926.44;10487822;28;20549;-84
2023/07/22 18:44:33;;;;;;;5.30;2.22;;;;;;;18.15;100.00;100921.84;10483313;28;20051;-83
2023/07/22 18:49:34;;;;;;;5.95;2.70;;;;;;;17.99;100.00;100918.00;10476377;28;20078;-84
2023/07/22 18:54:35;;;;;;;5.30;2.17;;;;;;;17.84;100.00;100917.72;10469580;28;20396;-83
2023/07/22 18:59:36;;;;;;;4.70;2.00;;;;;;;17.69;100.00;100923.59;10477295;28;20037;-84
2023/07/22 19:04:37;;;;;;;4.28;2.90;;;;;;;17.53;100.00;100923.31;10473310;28;20051;-84
2023/07/22 19:09:37;;;;;;;4.45;2.00;;;;;;;17.42;100.00;100919.56;10445205;28;20033;-84
2023/07/22 19:14:38;;;;;;;4.20;2.22;;;;;;;17.36;100.00;100920.34;10436134;28;20064;-84
2023/07/22 19:19:41;;;;;;;4.80;2.25;;;;;;;17.20;100.00;100912.94;10485798;28;20060;-84
2023/07/22 19:24:45;;;;;;;4.85;2.10;;;;;;;17.00;100.00;100910.75;10465693;28;20048;-84
2023/07/22 19:29:46;;;;;;;5.88;2.72;;;;;;;16.84;100.00;100914.75;10482486;28;20090;-84
2023/07/22 19:34:46;;;;;;;5.70;2.80;;;;;;;16.64;100.00;100914.31;10436692;28;20110;-84
2023/07/22 19:39:49;;;;;;;5.03;3.67;;;;;;;16.46;100.00;100909.47;10427812;28;20070;-84
2023/07/22 19:44:49;;;;;;;9.95;3.13;;;;;;;16.21;100.00;100915.06;10441211;28;20029;-85
2023/07/22 19:49:50;;;;;;;5.68;2.75;;;;;;;16.00;100.00;100908.38;10445001;28;20386;-89
2023/07/22 19:54:51;;;;;;;5.53;2.45;;;;;;;15.86;100.00;100923.78;10451907;28;20084;-87
2023/07/22 19:59:52;;;;;;;8.18;3.15;;;;;;;15.73;100.00;100928.72;10443017;28;20102;-83
2023/07/22 20:04:52;;;;;;;6.28;3.00;;;;;;;15.65;100.00;100923.22;10444038;28;20043;-84
2023/07/22 20:09:53;;;;;;;9.75;3.15;;;;;;;15.56;100.00;100919.47;10440912;28;20047;-84
2023/07/22 20:14:54;;;;;;;8.75;3.58;;;;;;;15.50;100.00;100927.22;10442870;28;20047;-84
2023/07/22 20:19:54;;;;;;;6.03;2.55;;;;;;;15.46;100.00;100924.47;10441355;28;20131;-84
2023/07/22 20:24:55;;;;;;;7.03;3.13;;;;;;;15.35;100.00;100917.13;10443304;28;20034;-84
2023/07/22 20:29:55;;;;;;;4.60;2.38;;;;;;;15.24;100.00;100922.06;10441678;28;20045;-85
2023/07/22 20:34:57;;;;;;;5.85;3.13;;;;;;;15.10;100.00;100916.41;10441558;28;20060;-84
2023/07/22 20:39:58;;;;;;;7.70;3.15;;;;;;;15.00;100.00;100926.63;10424432;28;20477;-84
2023/07/22 20:44:58;;;;;;;8.82;3.40;;;;;;;14.84;100.00;100949.84;10442862;28;20084;-85
2023/07/22 20:49:59;;;;;;;4.40;2.63;;;;;;;14.73;100.00;100961.78;10462191;28;20052;-84
2023/07/22 20:55:00;;;;;;;6.97;3.17;;;;;;;14.62;100.00;100954.41;10493161;28;20068;-84
2023/07/22 21:00:00;;;;;;;8.48;3.55;;;;;;;14.56;100.00;100948.94;10512338;28;20392;-83
2023/07/22 21:05:01;;;;;;;7.72;4.07;;;;;;;14.52;100.00;100947.03;10475636;28;20490;-83
2023/07/22 21:10:01;;;;;;;7.15;3.35;;;;;;;14.53;100.00;100949.75;10488975;28;20052;-83
2023/07/22 21:15:02;;;;;;;10.55;4.28;;;;;;;14.47;100.00;100957.44;10482770;28;20054;-83
2023/07/22 21:20:03;;;;;;;5.35;3.25;;;;;;;14.42;100.00;100959.03;10463745;28;20384;-81
2023/07/22 21:25:04;;;;;;;7.13;3.40;;;;;;;14.39;100.00;100958.94;10515317;28;20044;-80
2023/07/22 21:30:05;;;;;;;8.30;4.20;;;;;;;14.34;100.00;100947.34;10476444;28;20115;-80
2023/07/22 21:35:06;;;;;;;8.85;4.30;;;;;;;14.29;100.00;100943.66;10478813;28;20450;-79
2023/07/22 21:40:07;;;;;;;6.20;3.67;;;;;;;14.25;100.00;100937.38;10480302;28;20097;-80
2023/07/22 21:45:10;;;;;;;9.57;4.82;;;;;;;14.23;100.00;100933.81;10507225;28;20033;-81
2023/07/22 21:50:11;;;;;;;7.47;3.70;;;;;;;14.21;100.00;100932.88;10483484;28;20036;-82
2023/07/22 21:55:11;;;;;;;8.90;4.97;;;;;;;14.20;100.00;100926.72;10470259;28;20025;-83
2023/07/22 22:00:14;;;;;;;11.10;5.55;;;;;;;14.16;100.00;100929.19;10507324;28;20036;-83
2023/07/22 22:05:14;;;;;;;8.18;4.43;;;;;;;14.18;100.00;100924.88;10516082;28;20036;-81
2023/07/22 22:10:15;;;;;;;9.80;4.60;;;;;;;14.18;100.00;100922.22;10476601;28;20179;-81
2023/07/22 22:15:16;;;;;;;11.15;5.15;;;;;;;14.19;100.00;100924.03;10400772;28;20045;-83
2023/07/22 22:20:16;;;;;;;9.68;5.57;;;;;;;14.19;100.00;100932.81;10445739;28;20060;-84
2023/07/22 22:25:17;;;;;;;10.52;5.43;;;;;;;14.24;100.00;100939.16;10440108;28;20093;-80
2023/07/22 22:30:18;;;;;;;10.35;4.85;;;;;;;14.31;100.00;100928.81;10488218;28;20093;-81
2023/07/22 22:35:19;;;;;;;6.72;5.15;;;;;;;14.37;100.00;100921.13;10479711;28;20045;-80
2023/07/22 22:40:21;;;;;;;7.93;4.35;;;;;;;14.44;100.00;100909.94;10511283;28;20380;-80
2023/07/22 22:45:22;;;;;;;;;;;;;;;14.48;100.00;100900.41;10466309;28;20044;-81
2023/07/22 22:50:22;;;;;;;7.85;3.17;;;;;;;14.46;100.00;100886.28;10472314;28;20368;-80